createdAt,value
2022-10-22T01:16:03.257Z,12.28
2022-10-22T01:18:55.413Z,12.23
2022-10-22T01:21:27.066Z,12.22
2022-10-22T01:24:34.129Z,12.23
2022-10-22T01:27:11.856Z,12.21
2022-10-22T01:29:58.045Z,12.22
2022-10-22T01:32:26.235Z,12.21
2022-10-22T01:34:56.404Z,12.21
2022-10-22T01:37:24.349Z,12.21
2022-10-22T01:39:52.139Z,12.21
2022-10-22T01:42:18.733Z,12.22
2022-10-22T01:44:45.422Z,12.24
2022-10-22T01:47:27.720Z,12.23
2022-10-22T01:50:32.179Z,12.21
2022-10-22T01:53:18.098Z,12.22
2022-10-22T01:56:00.869Z,12.20
2022-10-22T01:58:36.536Z,12.18
2022-10-22T02:17:29.383Z,12.06
2022-10-22T02:20:01.849Z,12.06
2022-10-22T02:22:31.702Z,12.05
2022-10-22T02:24:59.255Z,12.04
2022-10-22T02:27:30.528Z,12.02
2022-10-22T02:30:02.651Z,12.02
2022-10-22T02:32:34.539Z,12.01
2022-10-22T02:35:01.955Z,12.00
2022-10-22T02:37:28.824Z,11.99
2022-10-22T02:39:56.437Z,12.00
2022-10-22T02:42:25.273Z,11.99
2022-10-22T02:44:52.616Z,11.99
2022-10-22T02:47:19.469Z,11.99
2022-10-22T02:49:46.631Z,12.04
2022-10-22T02:52:13.298Z,12.05
2022-10-22T02:54:39.928Z,12.10
2022-10-22T02:57:06.920Z,12.10
2022-10-22T02:59:34.189Z,12.11
2022-10-22T03:02:00.872Z,12.13
2022-10-22T03:04:27.542Z,12.16
2022-10-22T03:06:54.251Z,12.20
2022-10-22T03:09:24.126Z,12.23
2022-10-22T03:11:52.158Z,12.24
2022-10-22T03:14:19.102Z,12.27
2022-10-22T03:16:45.697Z,12.31
2022-10-22T03:19:12.391Z,12.35
2022-10-22T03:21:42.738Z,12.35
2022-10-22T03:24:12.475Z,12.34
2022-10-22T03:26:40.101Z,12.36
2022-10-22T03:29:06.921Z,12.36
2022-10-22T03:31:33.604Z,12.36
2022-10-22T03:34:00.642Z,12.42
2022-10-22T03:36:27.315Z,12.37
2022-10-22T03:38:54.103Z,12.38
2022-10-22T03:41:20.740Z,12.38
2022-10-22T03:43:51.667Z,12.38
2022-10-22T03:46:18.576Z,12.36
2022-10-22T03:48:45.396Z,12.36
2022-10-22T03:51:12.079Z,12.35
2022-10-22T03:53:38.717Z,12.36
2022-10-22T03:56:12.379Z,12.36
2022-10-22T03:58:40.969Z,12.34
2022-10-22T04:01:09.124Z,12.40
2022-10-22T04:03:35.927Z,12.38
2022-10-22T04:06:09.379Z,12.40
2022-10-22T04:08:36.584Z,12.45
2022-10-22T04:11:03.242Z,12.42
2022-10-22T04:13:29.996Z,12.42
2022-10-22T04:15:56.599Z,12.43
2022-10-22T04:18:23.805Z,12.49
2022-10-22T04:20:51.997Z,12.48
2022-10-22T04:23:18.636Z,12.47
2022-10-22T04:25:45.332Z,12.47
2022-10-22T04:28:11.956Z,12.47
2022-10-22T04:30:38.602Z,12.46
2022-10-22T04:33:05.266Z,12.44
2022-10-22T04:35:31.906Z,12.43
2022-10-22T04:37:58.712Z,12.44
2022-10-22T04:40:25.464Z,12.43
2022-10-22T04:42:52.164Z,12.43
2022-10-22T04:45:18.761Z,12.43
2022-10-22T04:47:45.399Z,12.42
2022-10-22T04:50:12.061Z,12.42
2022-10-22T04:52:38.750Z,12.46
2022-10-22T04:55:05.799Z,12.43
2022-10-22T04:57:32.884Z,12.45
2022-10-22T04:59:59.666Z,12.42
2022-10-22T05:02:26.665Z,12.43
2022-10-22T05:04:53.338Z,12.40
2022-10-22T05:07:19.962Z,12.43
2022-10-22T05:09:46.558Z,12.42
2022-10-22T05:12:13.270Z,12.40
2022-10-22T05:14:43.959Z,12.38
2022-10-22T05:17:11.806Z,12.38
2022-10-22T05:19:38.436Z,12.39
2022-10-22T05:22:05.860Z,12.38
2022-10-22T05:24:33.598Z,12.38
2022-10-22T05:27:00.728Z,12.38
2022-10-22T05:29:27.705Z,12.42
2022-10-22T05:31:54.391Z,12.41
2022-10-22T05:34:21.076Z,12.43
2022-10-22T05:36:47.817Z,12.43
2022-10-22T05:39:14.470Z,12.39
2022-10-22T05:41:41.555Z,12.44
2022-10-22T05:44:08.166Z,12.39
2022-10-22T05:46:36.036Z,12.38
2022-10-22T05:49:04.889Z,12.39
2022-10-22T05:51:32.714Z,12.39
2022-10-22T05:54:01.507Z,12.39
2022-10-22T05:56:29.942Z,12.40
2022-10-22T05:58:56.755Z,12.39
2022-10-22T06:01:31.335Z,12.38
2022-10-22T06:04:04.279Z,12.37
2022-10-22T06:06:38.506Z,12.39
2022-10-22T06:09:06.584Z,12.38
2022-10-22T06:11:35.163Z,12.36
2022-10-22T06:14:02.297Z,12.37
2022-10-22T06:16:30.051Z,12.42
2022-10-22T06:18:58.780Z,12.41
2022-10-22T06:21:25.464Z,12.47
2022-10-22T06:23:52.087Z,12.45
2022-10-22T06:26:18.821Z,12.45
2022-10-22T06:28:45.462Z,12.50
2022-10-22T06:31:12.097Z,12.52
2022-10-22T06:33:42.403Z,12.49
2022-10-22T06:36:14.990Z,12.51
2022-10-22T06:38:42.261Z,12.54
2022-10-22T06:41:14.411Z,12.57
2022-10-22T06:43:45.226Z,12.62
2022-10-22T06:46:14.825Z,12.62
2022-10-22T06:48:49.720Z,12.63
2022-10-22T06:51:16.562Z,12.65
2022-10-22T06:53:43.247Z,12.70
2022-10-22T06:56:14.721Z,12.67
2022-10-22T06:58:41.546Z,12.70
2022-10-22T07:01:12.941Z,12.75
2022-10-22T07:03:40.800Z,12.77
2022-10-22T07:06:12.397Z,12.77
2022-10-22T07:08:39.752Z,12.81
2022-10-22T07:11:18.332Z,12.78
2022-10-22T07:13:45.748Z,12.80
2022-10-22T07:16:12.784Z,12.88
2022-10-22T07:18:39.854Z,12.91
2022-10-22T07:21:07.795Z,12.90
2022-10-22T07:23:34.605Z,12.92
2022-10-22T07:26:06.769Z,12.95
2022-10-22T07:28:34.815Z,13.15
2022-10-22T07:31:01.568Z,13.09
2022-10-22T07:33:28.264Z,13.10
2022-10-22T07:35:59.904Z,13.19
2022-10-22T07:38:27.002Z,13.17
2022-10-22T07:40:53.833Z,13.24
2022-10-22T07:43:21.042Z,13.25
2022-10-22T07:45:47.794Z,13.24
2022-10-22T07:48:14.573Z,13.21
2022-10-22T07:50:41.396Z,13.29
2022-10-22T07:53:08.400Z,13.36
2022-10-22T07:55:35.977Z,13.45
2022-10-22T07:58:02.742Z,13.38
2022-10-22T08:00:29.377Z,13.47
2022-10-22T08:02:56.031Z,13.53
2022-10-22T08:05:22.638Z,13.62
2022-10-22T08:07:49.286Z,13.62
2022-10-22T08:10:15.935Z,13.65
2022-10-22T08:12:42.971Z,13.67
2022-10-22T08:15:10.004Z,13.68
2022-10-22T08:17:37.013Z,13.82
2022-10-22T08:20:04.397Z,13.78
2022-10-22T08:22:31.045Z,13.92
2022-10-22T08:24:57.637Z,13.90
2022-10-22T08:27:24.332Z,13.94
2022-10-22T08:29:50.998Z,13.93
2022-10-22T08:32:17.753Z,13.90
2022-10-22T08:34:44.484Z,14.00
2022-10-22T08:37:14.314Z,14.00
2022-10-22T08:39:42.565Z,13.98
2022-10-22T08:42:42.230Z,13.96
2022-10-22T08:45:29.360Z,13.92
2022-10-22T08:48:14.771Z,14.02
2022-10-22T08:50:45.662Z,14.03
2022-10-22T08:53:27.956Z,14.08
2022-10-22T08:55:54.690Z,14.05
2022-10-22T08:58:40.403Z,14.09
2022-10-22T09:01:14.281Z,14.12
2022-10-22T09:03:57.787Z,14.17
2022-10-22T09:06:27.067Z,14.24
2022-10-22T09:08:54.497Z,14.19
2022-10-22T09:11:24.127Z,14.27
2022-10-22T09:13:51.573Z,14.23
2022-10-22T09:16:50.757Z,14.41
2022-10-22T09:19:45.218Z,14.33
2022-10-22T09:22:36.834Z,14.40
2022-10-22T09:25:22.343Z,14.52
2022-10-22T09:27:49.804Z,14.40
2022-10-22T09:30:19.732Z,14.45
2022-10-22T09:32:46.696Z,14.43
2022-10-22T09:35:15.157Z,14.40
2022-10-22T09:37:50.668Z,14.44
2022-10-22T09:40:26.550Z,14.42
2022-10-22T09:42:53.159Z,14.48
2022-10-22T09:45:23.749Z,14.41
2022-10-22T09:48:01.556Z,14.39
2022-10-22T09:50:42.686Z,14.39
2022-10-22T09:53:22.149Z,14.46
2022-10-22T09:55:58.069Z,14.39
2022-10-22T09:58:24.908Z,14.38
2022-10-22T10:00:55.970Z,14.41
2022-10-22T10:03:25.070Z,14.42
2022-10-22T10:05:54.980Z,14.54
2022-10-22T10:08:22.417Z,14.55
2022-10-22T10:10:50.523Z,14.49
2022-10-22T10:13:29.083Z,14.57
2022-10-22T10:16:12.455Z,14.59
2022-10-22T10:19:00.410Z,14.57
2022-10-22T10:21:35.458Z,14.66
2022-10-22T10:24:29.103Z,14.59
2022-10-22T10:27:02.740Z,14.55
2022-10-22T10:29:45.404Z,14.61
2022-10-22T10:32:44.290Z,14.60
2022-10-22T10:35:25.992Z,14.54
2022-10-22T10:38:31.646Z,14.54
2022-10-22T10:41:23.126Z,14.59
2022-10-22T10:44:14.374Z,14.61
2022-10-22T10:47:04.641Z,14.71
2022-10-22T10:49:33.738Z,14.85
2022-10-22T10:52:25.550Z,14.77
2022-10-22T10:55:04.374Z,14.84
2022-10-22T10:57:46.449Z,15.01
2022-10-22T11:00:19.708Z,15.12
2022-10-22T11:03:27.305Z,15.24
2022-10-22T11:06:03.529Z,15.35
2022-10-22T11:08:32.594Z,15.45
2022-10-22T11:11:12.978Z,15.53
2022-10-22T11:13:52.360Z,15.61
2022-10-22T11:16:23.292Z,15.71
2022-10-22T11:19:03.518Z,15.70
2022-10-22T11:21:57.900Z,15.62
2022-10-22T11:24:38.352Z,15.64
2022-10-22T11:27:10.406Z,15.67
2022-10-22T11:29:43.240Z,15.68
2022-10-22T11:32:17.626Z,15.69
2022-10-22T11:34:50.864Z,15.50
2022-10-22T11:37:17.815Z,15.51
2022-10-22T11:40:15.247Z,15.72
2022-10-22T11:42:48.154Z,15.64
2022-10-22T11:45:14.703Z,15.72
2022-10-22T11:47:59.400Z,15.80
2022-10-22T11:50:28.844Z,15.83
2022-10-22T11:53:02.774Z,15.86
2022-10-22T11:55:48.726Z,15.74
2022-10-22T11:58:34.276Z,15.73
2022-10-22T12:01:10.150Z,15.73
2022-10-22T12:03:43.943Z,15.83
2022-10-22T12:06:15.379Z,15.45
2022-10-22T12:08:54.487Z,15.53
2022-10-22T12:11:47.755Z,15.77
2022-10-22T12:14:28.089Z,15.89
2022-10-22T12:17:13.003Z,15.88
2022-10-22T12:19:42.116Z,15.90
2022-10-22T12:22:13.678Z,16.00
2022-10-22T12:24:46.415Z,16.18
2022-10-22T12:27:35.819Z,16.34
2022-10-22T12:30:17.452Z,16.38
2022-10-22T12:32:44.151Z,16.30
2022-10-22T12:35:19.537Z,16.38
2022-10-22T12:37:49.703Z,16.30
2022-10-22T12:40:31.082Z,16.39
2022-10-22T12:43:02.778Z,16.36
2022-10-22T12:45:31.663Z,16.43
2022-10-22T12:48:00.107Z,16.49
2022-10-22T12:50:54.150Z,16.58
2022-10-22T12:53:24.599Z,16.60
2022-10-22T12:55:53.684Z,16.70
2022-10-22T12:58:23.219Z,16.69
2022-10-22T13:00:57.340Z,16.69
2022-10-22T13:03:31.399Z,16.70
2022-10-22T13:06:11.030Z,16.65
2022-10-22T13:08:38.842Z,16.58
2022-10-22T13:11:10.694Z,16.67
2022-10-22T13:13:40.378Z,16.76
2022-10-22T13:16:14.286Z,16.69
2022-10-22T13:18:40.893Z,16.53
2022-10-22T13:21:22.986Z,16.52
2022-10-22T13:23:55.449Z,16.49
2022-10-22T13:26:25.637Z,16.49
2022-10-22T13:28:54.396Z,16.48
2022-10-22T13:31:24.137Z,16.47
2022-10-22T13:33:56.944Z,16.61
2022-10-22T13:36:24.053Z,16.97
2022-10-22T13:38:50.878Z,17.04
2022-10-22T13:41:26.689Z,17.17
2022-10-22T13:43:53.964Z,17.25
2022-10-22T13:46:20.989Z,17.16
2022-10-22T13:48:48.754Z,17.10
2022-10-22T13:51:17.785Z,17.17
2022-10-22T13:53:46.212Z,17.10
2022-10-22T13:56:17.265Z,17.03
2022-10-22T13:58:45.097Z,16.96
2022-10-22T14:01:23.272Z,16.92
2022-10-22T14:03:52.923Z,16.87
2022-10-22T14:06:21.289Z,16.92
2022-10-22T14:08:56.222Z,16.81
2022-10-22T14:11:23.010Z,16.74
2022-10-22T14:13:49.742Z,16.72
2022-10-22T14:16:23.182Z,16.71
2022-10-22T14:18:50.315Z,16.74
2022-10-22T14:21:17.627Z,16.86
2022-10-22T14:23:46.421Z,16.73
2022-10-22T14:26:22.372Z,16.70
2022-10-22T14:29:08.683Z,16.70
2022-10-22T14:31:37.414Z,16.75
2022-10-22T14:34:04.181Z,16.70
2022-10-22T14:36:30.842Z,16.69
2022-10-22T14:38:57.493Z,16.60
2022-10-22T14:41:26.138Z,16.63
2022-10-22T14:43:52.897Z,16.53
2022-10-22T14:46:19.739Z,16.51
2022-10-22T14:48:46.545Z,16.48
2022-10-22T14:51:15.703Z,16.44
2022-10-22T14:53:42.422Z,16.35
2022-10-22T14:56:13.526Z,16.35
2022-10-22T14:58:40.856Z,16.21
2022-10-22T15:01:08.453Z,16.19
2022-10-22T15:03:35.551Z,16.09
2022-10-22T15:06:02.193Z,16.09
2022-10-22T15:08:29.047Z,15.95
2022-10-22T15:11:13.926Z,15.85
2022-10-22T15:13:42.087Z,15.76
2022-10-22T15:16:15.502Z,15.65
2022-10-22T15:18:42.345Z,15.54
2022-10-22T15:21:18.664Z,15.43
2022-10-22T15:23:45.302Z,15.29
2022-10-22T15:26:13.103Z,15.18
2022-10-22T15:28:41.873Z,15.12
2022-10-22T15:31:12.532Z,15.03
2022-10-22T15:33:40.983Z,14.93
2022-10-22T15:36:12.798Z,14.84
2022-10-22T15:38:39.506Z,14.70
2022-10-22T15:41:07.922Z,14.58
2022-10-22T15:43:34.898Z,14.47
2022-10-22T15:46:09.466Z,14.39
2022-10-22T15:48:36.091Z,14.35
2022-10-22T15:51:11.402Z,14.26
2022-10-22T15:53:38.068Z,14.15
2022-10-22T15:56:05.019Z,14.06
2022-10-22T15:58:31.646Z,13.99
2022-10-22T16:01:09.491Z,13.87
2022-10-22T16:03:36.521Z,13.79
2022-10-22T16:06:04.065Z,13.72
2022-10-22T16:08:31.971Z,13.66
2022-10-22T16:10:59.054Z,13.59
2022-10-22T16:13:26.490Z,13.53
2022-10-22T16:15:54.550Z,13.49
2022-10-22T16:18:21.667Z,13.41
2022-10-22T16:20:48.268Z,13.32
2022-10-22T16:23:18.676Z,13.24
2022-10-22T16:25:46.206Z,13.14
2022-10-22T16:28:13.157Z,13.08
2022-10-22T16:30:40.276Z,13.05
2022-10-22T16:33:08.297Z,13.01
2022-10-22T16:35:35.052Z,12.96
2022-10-22T16:38:01.821Z,12.89
2022-10-22T16:40:29.246Z,12.85
2022-10-22T16:42:55.921Z,12.86
2022-10-22T16:45:22.693Z,12.78
2022-10-22T16:47:50.449Z,12.69
2022-10-22T16:50:17.170Z,12.62
2022-10-22T16:52:43.816Z,12.56
2022-10-22T16:55:10.454Z,12.50
2022-10-22T16:57:37.138Z,12.45
2022-10-22T17:00:05.668Z,12.40
2022-10-22T17:02:32.289Z,12.34
2022-10-22T17:04:58.921Z,12.30
2022-10-22T17:07:25.539Z,12.27
2022-10-22T17:09:52.210Z,12.22
2022-10-22T17:12:18.815Z,12.15
2022-10-22T17:14:45.472Z,12.10
2022-10-22T17:17:12.110Z,12.08
2022-10-22T17:19:38.929Z,12.03
2022-10-22T17:22:05.703Z,12.00
2022-10-22T17:24:32.332Z,11.97
2022-10-22T17:26:59.019Z,11.98
2022-10-22T17:29:25.706Z,11.99
2022-10-22T17:31:52.704Z,11.96
2022-10-22T17:34:19.411Z,11.92
2022-10-22T17:36:46.131Z,11.89
2022-10-22T17:39:16.557Z,11.89
2022-10-22T17:41:43.227Z,11.87
2022-10-22T17:44:17.154Z,11.88
2022-10-22T17:46:45.265Z,11.86
2022-10-22T17:49:19.872Z,11.84
2022-10-22T17:51:47.031Z,11.83
2022-10-22T17:54:14.084Z,11.87
2022-10-22T17:56:40.763Z,11.88
2022-10-22T17:59:08.621Z,11.89
2022-10-22T18:01:37.736Z,11.84
2022-10-22T18:04:06.542Z,11.80
2022-10-22T18:06:33.997Z,11.78
2022-10-22T18:09:04.902Z,11.76
2022-10-22T18:11:32.569Z,11.71
2022-10-22T18:13:59.261Z,11.71
2022-10-22T18:16:26.873Z,11.68
2022-10-22T18:18:55.728Z,11.68
2022-10-22T18:21:24.435Z,11.65
2022-10-22T18:23:51.431Z,11.64
2022-10-22T18:26:20.347Z,11.63
2022-10-22T18:28:49.536Z,11.61
2022-10-22T18:31:18.901Z,11.59
2022-10-22T18:33:46.321Z,11.55
2022-10-22T18:36:16.243Z,11.53
2022-10-22T18:38:42.875Z,11.52
2022-10-22T18:41:13.524Z,11.50
2022-10-22T18:43:41.210Z,11.46
2022-10-22T18:46:11.222Z,11.45
2022-10-22T18:48:38.258Z,11.45
2022-10-22T18:51:08.393Z,11.45
2022-10-22T18:53:36.637Z,11.44
2022-10-22T18:56:08.077Z,11.45
2022-10-22T18:58:46.333Z,11.49
2022-10-22T19:01:15.463Z,11.50
2022-10-22T19:03:42.190Z,11.48
2022-10-22T19:06:08.981Z,11.51
2022-10-22T19:08:36.825Z,11.51
2022-10-22T19:11:10.758Z,11.54
2022-10-22T19:13:42.644Z,11.55
2022-10-22T19:16:13.311Z,11.55
2022-10-22T19:18:40.011Z,11.54
2022-10-22T19:21:09.858Z,11.52
2022-10-22T19:26:21.581Z,11.40
2022-10-22T19:28:51.326Z,11.43
2022-10-22T19:31:20.361Z,11.34
2022-10-22T19:33:48.102Z,11.31
2022-10-22T19:36:16.915Z,11.25
2022-10-22T19:38:45.816Z,11.23
2022-10-22T19:41:14.393Z,11.22
2022-10-22T19:43:42.331Z,11.19
2022-10-22T19:46:14.415Z,11.16
2022-10-22T19:48:47.030Z,11.12
2022-10-22T19:51:25.591Z,11.08
2022-10-22T19:54:00.152Z,11.02
2022-10-22T19:56:29.998Z,10.95
2022-10-22T19:58:58.928Z,10.90
2022-10-22T20:01:26.721Z,10.88
2022-10-22T20:03:56.375Z,10.84
2022-10-22T20:06:25.271Z,10.85
2022-10-22T20:08:55.952Z,10.80
2022-10-22T20:11:26.324Z,10.75
2022-10-22T20:13:53.491Z,10.78
2022-10-22T20:16:23.486Z,10.77
2022-10-22T20:18:52.452Z,10.70
2022-10-22T20:21:19.616Z,10.69
2022-10-22T20:23:47.128Z,10.66
2022-10-22T20:26:14.015Z,10.63
2022-10-22T20:28:40.681Z,10.61
2022-10-22T20:31:12.054Z,10.60
2022-10-22T20:33:38.990Z,10.54
2022-10-22T20:36:08.100Z,10.53
2022-10-22T20:41:12.892Z,10.50
2022-10-22T20:43:39.633Z,10.50
2022-10-22T20:46:06.321Z,10.49
2022-10-22T20:48:33.527Z,10.47
2022-10-22T20:51:00.967Z,10.44
2022-10-22T20:53:28.188Z,10.41
2022-10-22T20:55:57.694Z,10.38
2022-10-22T20:58:26.846Z,10.37
2022-10-22T21:00:58.245Z,10.32
2022-10-22T21:03:25.218Z,10.37
2022-10-22T21:05:51.974Z,10.29
2022-10-22T21:08:18.786Z,10.22
2022-10-22T21:10:49.344Z,10.22
2022-10-22T21:13:16.813Z,10.17
2022-10-22T21:15:43.500Z,10.14
2022-10-22T21:18:10.709Z,10.15
2022-10-22T21:20:41.542Z,10.17
2022-10-22T21:23:08.710Z,10.15
2022-10-22T21:25:39.489Z,10.18
2022-10-22T21:28:08.634Z,10.21
2022-10-22T21:30:35.455Z,10.19
2022-10-22T21:33:02.104Z,10.19
2022-10-22T21:35:28.827Z,10.21
2022-10-22T21:37:55.501Z,10.23
2022-10-22T21:40:22.426Z,10.37
2022-10-22T21:42:50.298Z,10.43
2022-10-22T21:45:19.996Z,10.46
2022-10-22T21:47:48.895Z,10.53
2022-10-22T21:50:15.904Z,10.53
2022-10-22T21:52:42.760Z,10.52
2022-10-22T21:55:09.652Z,10.41
2022-10-22T21:57:36.341Z,10.45
2022-10-22T22:00:06.585Z,10.42
2022-10-22T22:02:33.648Z,10.36
2022-10-22T22:05:00.347Z,10.32
2022-10-22T22:07:27.048Z,10.37
2022-10-22T22:09:53.777Z,10.36
2022-10-22T22:12:21.240Z,10.35
2022-10-22T22:14:47.921Z,10.34
2022-10-22T22:17:16.646Z,10.33
2022-10-22T22:19:43.384Z,10.32
2022-10-22T22:22:10.130Z,10.26
2022-10-22T22:24:38.287Z,10.29
2022-10-22T22:27:04.924Z,10.29
2022-10-22T22:29:32.387Z,10.27
2022-10-22T22:31:58.986Z,10.27
2022-10-22T22:34:25.833Z,10.31
2022-10-22T22:36:52.928Z,10.30
2022-10-22T22:39:22.517Z,10.32
2022-10-22T22:41:50.077Z,10.31
2022-10-22T22:44:17.384Z,10.38
2022-10-22T22:46:46.622Z,10.34
2022-10-22T22:49:13.926Z,10.30
2022-10-22T22:51:40.657Z,10.30
2022-10-22T22:54:07.676Z,10.28
2022-10-22T22:56:34.657Z,10.26
2022-10-22T22:59:05.342Z,10.25
2022-10-22T23:01:35.734Z,10.24
2022-10-22T23:04:16.305Z,10.26
2022-10-22T23:06:42.982Z,10.25
2022-10-22T23:09:11.866Z,10.27
2022-10-22T23:11:39.330Z,10.27
2022-10-22T23:14:07.739Z,10.26
2022-10-22T23:16:37.779Z,10.29
2022-10-22T23:19:09.202Z,10.30
2022-10-22T23:21:37.935Z,10.31
2022-10-22T23:24:07.447Z,10.33
2022-10-22T23:26:36.848Z,10.36
2022-10-22T23:29:05.701Z,10.36
2022-10-22T23:31:32.587Z,10.37
2022-10-22T23:33:59.376Z,10.40
2022-10-22T23:36:28.911Z,10.42
2022-10-22T23:38:55.812Z,10.44
2022-10-22T23:41:22.579Z,10.47
2022-10-22T23:43:50.111Z,10.48
2022-10-22T23:46:16.811Z,10.50
2022-10-22T23:48:43.791Z,10.52
2022-10-22T23:51:15.870Z,10.55
2022-10-22T23:53:43.717Z,10.56
2022-10-22T23:56:16.333Z,10.56
2022-10-22T23:58:43.547Z,10.57
